sensor_id;sensor_type;location;lat;lon;timestamp;temperature;humidity
20722;DHT22;10522;52.198;9.890;2023-02-11T00:01:11;5.40;99.90
20722;DHT22;10522;52.198;9.890;2023-02-11T00:03:37;5.40;99.90
20722;DHT22;10522;52.198;9.890;2023-02-11T00:06:05;5.40;99.90
20722;DHT22;10522;52.198;9.890;2023-02-11T00:08:34;5.40;99.90
20722;DHT22;10522;52.198;9.890;2023-02-11T00:10:59;5.40;99.90
20722;DHT22;10522;52.198;9.890;2023-02-11T00:13:25;5.40;99.90
20722;DHT22;10522;52.198;9.890;2023-02-11T00:15:52;5.50;99.90
20722;DHT22;10522;52.198;9.890;2023-02-11T00:18:17;5.40;99.90
20722;DHT22;10522;52.198;9.890;2023-02-11T00:20:43;5.50;99.90
20722;DHT22;10522;52.198;9.890;2023-02-11T00:23:08;5.50;99.90
20722;DHT22;10522;52.198;9.890;2023-02-11T00:25:40;5.50;99.90
20722;DHT22;10522;52.198;9.890;2023-02-11T00:28:06;5.50;99.90
20722;DHT22;10522;52.198;9.890;2023-02-11T00:30:31;5.50;99.90
20722;DHT22;10522;52.198;9.890;2023-02-11T00:32:57;5.50;99.90
20722;DHT22;10522;52.198;9.890;2023-02-11T00:35:22;5.50;99.90
20722;DHT22;10522;52.198;9.890;2023-02-11T00:37:48;5.40;99.90
20722;DHT22;10522;52.198;9.890;2023-02-11T00:40:14;5.50;99.90
20722;DHT22;10522;52.198;9.890;2023-02-11T00:42:41;5.50;99.90
20722;DHT22;10522;52.198;9.890;2023-02-11T00:45:07;5.60;99.90
20722;DHT22;10522;52.198;9.890;2023-02-11T00:47:34;5.60;99.90
20722;DHT22;10522;52.198;9.890;2023-02-11T00:50:00;5.60;99.90
20722;DHT22;10522;52.198;9.890;2023-02-11T00:52:26;5.60;99.90
20722;DHT22;10522;52.198;9.890;2023-02-11T00:54:51;5.60;99.90
20722;DHT22;10522;52.198;9.890;2023-02-11T00:57:17;5.60;99.90
20722;DHT22;10522;52.198;9.890;2023-02-11T00:59:43;5.60;99.90
20722;DHT22;10522;52.198;9.890;2023-02-11T01:02:08;5.60;99.90
20722;DHT22;10522;52.198;9.890;2023-02-11T01:04:34;5.60;99.90
20722;DHT22;10522;52.198;9.890;2023-02-11T01:06:59;5.60;99.90
20722;DHT22;10522;52.198;9.890;2023-02-11T01:09:25;5.60;99.90
20722;DHT22;10522;52.198;9.890;2023-02-11T01:11:50;5.60;99.90
20722;DHT22;10522;52.198;9.890;2023-02-11T01:14:16;5.60;99.90
20722;DHT22;10522;52.198;9.890;2023-02-11T01:16:42;5.50;99.90
20722;DHT22;10522;52.198;9.890;2023-02-11T01:19:08;5.50;99.90
20722;DHT22;10522;52.198;9.890;2023-02-11T01:21:33;5.50;99.90
20722;DHT22;10522;52.198;9.890;2023-02-11T01:23:59;5.50;99.90
20722;DHT22;10522;52.198;9.890;2023-02-11T01:26:24;5.50;99.90
20722;DHT22;10522;52.198;9.890;2023-02-11T01:28:50;5.50;99.90
20722;DHT22;10522;52.198;9.890;2023-02-11T01:31:16;5.50;99.90
20722;DHT22;10522;52.198;9.890;2023-02-11T01:33:41;5.50;99.90
20722;DHT22;10522;52.198;9.890;2023-02-11T01:36:07;5.50;99.90
20722;DHT22;10522;52.198;9.890;2023-02-11T01:38:33;5.40;99.90
20722;DHT22;10522;52.198;9.890;2023-02-11T01:41:02;5.40;99.90
20722;DHT22;10522;52.198;9.890;2023-02-11T01:43:32;5.40;99.90
20722;DHT22;10522;52.198;9.890;2023-02-11T01:46:30;5.40;99.90
20722;DHT22;10522;52.198;9.890;2023-02-11T01:51:28;5.40;99.90
20722;DHT22;10522;52.198;9.890;2023-02-11T01:53:55;5.40;99.90
20722;DHT22;10522;52.198;9.890;2023-02-11T01:56:44;5.40;99.90
20722;DHT22;10522;52.198;9.890;2023-02-11T01:59:37;5.40;99.90
20722;DHT22;10522;52.198;9.890;2023-02-11T02:02:07;5.40;99.90
20722;DHT22;10522;52.198;9.890;2023-02-11T02:04:40;5.50;99.90
20722;DHT22;10522;52.198;9.890;2023-02-11T02:07:13;5.40;99.90
20722;DHT22;10522;52.198;9.890;2023-02-11T02:09:47;5.40;99.90
20722;DHT22;10522;52.198;9.890;2023-02-11T02:12:14;5.60;99.90
20722;DHT22;10522;52.198;9.890;2023-02-11T02:14:40;5.50;99.90
20722;DHT22;10522;52.198;9.890;2023-02-11T02:17:09;5.50;99.90
20722;DHT22;10522;52.198;9.890;2023-02-11T02:38:50;5.40;99.90
20722;DHT22;10522;52.198;9.890;2023-02-11T02:41:25;5.50;99.90
20722;DHT22;10522;52.198;9.890;2023-02-11T02:43:51;5.50;99.90
20722;DHT22;10522;52.198;9.890;2023-02-11T02:48:48;5.50;99.90
20722;DHT22;10522;52.198;9.890;2023-02-11T02:57:13;5.50;99.90
20722;DHT22;10522;52.198;9.890;2023-02-11T03:02:47;5.50;99.90
20722;DHT22;10522;52.198;9.890;2023-02-11T03:05:26;5.50;99.90
20722;DHT22;10522;52.198;9.890;2023-02-11T03:10:45;5.50;99.90
20722;DHT22;10522;52.198;9.890;2023-02-11T03:13:13;5.50;99.90
20722;DHT22;10522;52.198;9.890;2023-02-11T03:15:48;5.50;99.90
20722;DHT22;10522;52.198;9.890;2023-02-11T03:18:18;5.50;99.90
20722;DHT22;10522;52.198;9.890;2023-02-11T03:20:48;5.50;99.90
20722;DHT22;10522;52.198;9.890;2023-02-11T03:23:30;5.50;99.90
20722;DHT22;10522;52.198;9.890;2023-02-11T03:27:03;5.50;99.90
20722;DHT22;10522;52.198;9.890;2023-02-11T03:29:32;5.50;99.90
20722;DHT22;10522;52.198;9.890;2023-02-11T03:34:59;5.50;99.90
20722;DHT22;10522;52.198;9.890;2023-02-11T03:37:32;5.50;99.90
20722;DHT22;10522;52.198;9.890;2023-02-11T03:42:43;5.60;99.90
20722;DHT22;10522;52.198;9.890;2023-02-11T03:45:13;5.50;99.90
20722;DHT22;10522;52.198;9.890;2023-02-11T03:47:45;5.50;99.90
20722;DHT22;10522;52.198;9.890;2023-02-11T03:50:13;5.50;99.90
20722;DHT22;10522;52.198;9.890;2023-02-11T03:52:39;5.50;99.90
20722;DHT22;10522;52.198;9.890;2023-02-11T03:55:09;5.50;99.90
20722;DHT22;10522;52.198;9.890;2023-02-11T03:57:36;5.40;99.90
20722;DHT22;10522;52.198;9.890;2023-02-11T04:00:03;5.50;99.90
20722;DHT22;10522;52.198;9.890;2023-02-11T04:02:30;5.50;99.90
20722;DHT22;10522;52.198;9.890;2023-02-11T04:04:57;5.50;99.90
20722;DHT22;10522;52.198;9.890;2023-02-11T04:07:23;5.50;99.90
20722;DHT22;10522;52.198;9.890;2023-02-11T04:09:49;5.50;99.90
20722;DHT22;10522;52.198;9.890;2023-02-11T04:12:14;5.50;99.90
20722;DHT22;10522;52.198;9.890;2023-02-11T04:14:40;5.50;99.90
20722;DHT22;10522;52.198;9.890;2023-02-11T04:17:05;5.50;99.90
20722;DHT22;10522;52.198;9.890;2023-02-11T04:19:31;5.50;99.90
20722;DHT22;10522;52.198;9.890;2023-02-11T04:21:57;5.60;99.90
20722;DHT22;10522;52.198;9.890;2023-02-11T04:24:22;5.60;99.90
20722;DHT22;10522;52.198;9.890;2023-02-11T04:26:48;5.50;99.90
20722;DHT22;10522;52.198;9.890;2023-02-11T04:29:14;5.50;99.90
20722;DHT22;10522;52.198;9.890;2023-02-11T04:31:39;5.50;99.90
20722;DHT22;10522;52.198;9.890;2023-02-11T04:34:05;5.50;99.90
20722;DHT22;10522;52.198;9.890;2023-02-11T04:36:30;5.50;99.90
20722;DHT22;10522;52.198;9.890;2023-02-11T04:38:56;5.50;99.90
20722;DHT22;10522;52.198;9.890;2023-02-11T04:41:21;5.40;99.90
20722;DHT22;10522;52.198;9.890;2023-02-11T04:43:47;5.40;99.90
20722;DHT22;10522;52.198;9.890;2023-02-11T04:46:13;5.40;99.90
20722;DHT22;10522;52.198;9.890;2023-02-11T04:48:38;5.40;99.90
20722;DHT22;10522;52.198;9.890;2023-02-11T04:51:04;5.40;99.90
20722;DHT22;10522;52.198;9.890;2023-02-11T04:53:30;5.40;99.90
20722;DHT22;10522;52.198;9.890;2023-02-11T04:55:55;5.40;99.90
20722;DHT22;10522;52.198;9.890;2023-02-11T04:58:21;5.40;99.90
20722;DHT22;10522;52.198;9.890;2023-02-11T05:00:47;5.40;99.90
20722;DHT22;10522;52.198;9.890;2023-02-11T05:03:12;5.40;99.90
20722;DHT22;10522;52.198;9.890;2023-02-11T05:05:41;5.40;99.90
20722;DHT22;10522;52.198;9.890;2023-02-11T05:08:10;5.40;99.90
20722;DHT22;10522;52.198;9.890;2023-02-11T05:10:36;5.40;99.90
20722;DHT22;10522;52.198;9.890;2023-02-11T05:13:02;5.40;99.90
20722;DHT22;10522;52.198;9.890;2023-02-11T05:15:28;5.40;99.90
20722;DHT22;10522;52.198;9.890;2023-02-11T05:17:54;5.40;99.90
20722;DHT22;10522;52.198;9.890;2023-02-11T05:20:20;5.40;99.90
20722;DHT22;10522;52.198;9.890;2023-02-11T05:22:46;5.40;99.90
20722;DHT22;10522;52.198;9.890;2023-02-11T05:25:11;5.50;99.90
20722;DHT22;10522;52.198;9.890;2023-02-11T05:27:37;5.50;99.90
20722;DHT22;10522;52.198;9.890;2023-02-11T05:30:03;5.50;99.90
20722;DHT22;10522;52.198;9.890;2023-02-11T05:32:29;5.50;99.90
20722;DHT22;10522;52.198;9.890;2023-02-11T05:34:54;5.60;99.90
20722;DHT22;10522;52.198;9.890;2023-02-11T05:37:20;5.60;99.90
20722;DHT22;10522;52.198;9.890;2023-02-11T05:39:46;5.60;99.90
20722;DHT22;10522;52.198;9.890;2023-02-11T05:42:12;5.70;99.90
20722;DHT22;10522;52.198;9.890;2023-02-11T05:44:38;5.70;99.90
20722;DHT22;10522;52.198;9.890;2023-02-11T05:47:04;5.60;99.90
20722;DHT22;10522;52.198;9.890;2023-02-11T05:49:29;5.60;99.90
20722;DHT22;10522;52.198;9.890;2023-02-11T05:51:55;5.70;99.90
20722;DHT22;10522;52.198;9.890;2023-02-11T05:54:20;5.70;99.90
20722;DHT22;10522;52.198;9.890;2023-02-11T05:56:46;5.70;99.90
20722;DHT22;10522;52.198;9.890;2023-02-11T05:59:13;5.70;99.90
20722;DHT22;10522;52.198;9.890;2023-02-11T06:01:39;5.70;99.90
20722;DHT22;10522;52.198;9.890;2023-02-11T06:04:04;5.80;99.90
20722;DHT22;10522;52.198;9.890;2023-02-11T06:06:30;5.80;99.90
20722;DHT22;10522;52.198;9.890;2023-02-11T06:08:56;5.70;99.90
20722;DHT22;10522;52.198;9.890;2023-02-11T06:11:21;5.70;99.90
20722;DHT22;10522;52.198;9.890;2023-02-11T06:13:47;5.70;99.90
20722;DHT22;10522;52.198;9.890;2023-02-11T06:16:12;5.70;99.90
20722;DHT22;10522;52.198;9.890;2023-02-11T06:18:38;5.80;99.90
20722;DHT22;10522;52.198;9.890;2023-02-11T06:21:08;5.80;99.90
20722;DHT22;10522;52.198;9.890;2023-02-11T06:23:34;5.80;99.90
20722;DHT22;10522;52.198;9.890;2023-02-11T06:26:04;5.80;99.90
20722;DHT22;10522;52.198;9.890;2023-02-11T06:28:30;5.80;99.90
20722;DHT22;10522;52.198;9.890;2023-02-11T06:30:56;5.80;99.90
20722;DHT22;10522;52.198;9.890;2023-02-11T06:33:22;5.90;99.90
20722;DHT22;10522;52.198;9.890;2023-02-11T06:35:48;5.80;99.90
20722;DHT22;10522;52.198;9.890;2023-02-11T06:38:13;5.80;99.90
20722;DHT22;10522;52.198;9.890;2023-02-11T06:40:39;5.80;99.90
20722;DHT22;10522;52.198;9.890;2023-02-11T06:43:05;5.90;99.90
20722;DHT22;10522;52.198;9.890;2023-02-11T06:45:30;5.90;99.90
20722;DHT22;10522;52.198;9.890;2023-02-11T06:47:56;5.90;99.90
20722;DHT22;10522;52.198;9.890;2023-02-11T06:50:22;5.90;99.90
20722;DHT22;10522;52.198;9.890;2023-02-11T06:52:47;5.90;99.90
20722;DHT22;10522;52.198;9.890;2023-02-11T06:55:13;5.90;99.90
20722;DHT22;10522;52.198;9.890;2023-02-11T06:57:39;5.90;99.90
20722;DHT22;10522;52.198;9.890;2023-02-11T07:00:05;6.00;99.90
20722;DHT22;10522;52.198;9.890;2023-02-11T07:02:31;6.00;99.90
20722;DHT22;10522;52.198;9.890;2023-02-11T07:04:56;6.00;99.90
20722;DHT22;10522;52.198;9.890;2023-02-11T07:07:22;6.00;99.90
20722;DHT22;10522;52.198;9.890;2023-02-11T07:09:47;6.00;99.90
20722;DHT22;10522;52.198;9.890;2023-02-11T07:12:13;6.00;99.90
20722;DHT22;10522;52.198;9.890;2023-02-11T07:14:39;6.00;99.90
20722;DHT22;10522;52.198;9.890;2023-02-11T07:17:04;6.10;99.90
20722;DHT22;10522;52.198;9.890;2023-02-11T07:19:30;6.10;99.90
20722;DHT22;10522;52.198;9.890;2023-02-11T07:21:56;6.00;99.90
20722;DHT22;10522;52.198;9.890;2023-02-11T07:24:21;6.10;99.90
20722;DHT22;10522;52.198;9.890;2023-02-11T07:26:47;6.10;99.90
20722;DHT22;10522;52.198;9.890;2023-02-11T07:29:13;6.10;99.90
20722;DHT22;10522;52.198;9.890;2023-02-11T07:31:39;6.10;99.90
20722;DHT22;10522;52.198;9.890;2023-02-11T07:34:04;6.20;99.90
20722;DHT22;10522;52.198;9.890;2023-02-11T07:36:30;6.10;99.90
20722;DHT22;10522;52.198;9.890;2023-02-11T07:38:56;6.20;99.90
20722;DHT22;10522;52.198;9.890;2023-02-11T07:41:23;6.10;99.90
20722;DHT22;10522;52.198;9.890;2023-02-11T07:43:50;6.10;99.90
20722;DHT22;10522;52.198;9.890;2023-02-11T07:46:24;6.10;99.90
20722;DHT22;10522;52.198;9.890;2023-02-11T07:48:51;6.10;99.90
20722;DHT22;10522;52.198;9.890;2023-02-11T07:51:20;6.20;99.90
20722;DHT22;10522;52.198;9.890;2023-02-11T07:53:46;6.20;99.90
20722;DHT22;10522;52.198;9.890;2023-02-11T07:56:13;6.20;99.90
20722;DHT22;10522;52.198;9.890;2023-02-11T07:58:40;6.20;99.90
20722;DHT22;10522;52.198;9.890;2023-02-11T08:01:09;6.20;99.90
20722;DHT22;10522;52.198;9.890;2023-02-11T08:03:37;6.30;99.90
20722;DHT22;10522;52.198;9.890;2023-02-11T08:06:09;6.30;99.90
20722;DHT22;10522;52.198;9.890;2023-02-11T08:08:34;6.30;99.90
20722;DHT22;10522;52.198;9.890;2023-02-11T08:11:05;6.40;99.90
20722;DHT22;10522;52.198;9.890;2023-02-11T08:13:32;6.40;99.90
20722;DHT22;10522;52.198;9.890;2023-02-11T08:15:57;6.30;99.90
20722;DHT22;10522;52.198;9.890;2023-02-11T08:18:23;6.40;99.90
20722;DHT22;10522;52.198;9.890;2023-02-11T08:20:48;6.60;99.90
20722;DHT22;10522;52.198;9.890;2023-02-11T08:23:14;6.50;99.90
20722;DHT22;10522;52.198;9.890;2023-02-11T08:25:40;6.50;99.90
20722;DHT22;10522;52.198;9.890;2023-02-11T08:28:05;6.50;99.90
20722;DHT22;10522;52.198;9.890;2023-02-11T08:30:33;6.50;99.90
20722;DHT22;10522;52.198;9.890;2023-02-11T08:32:59;6.50;99.90
20722;DHT22;10522;52.198;9.890;2023-02-11T08:35:25;6.50;99.90
20722;DHT22;10522;52.198;9.890;2023-02-11T08:37:51;6.50;99.90
20722;DHT22;10522;52.198;9.890;2023-02-11T08:40:17;6.60;99.90
20722;DHT22;10522;52.198;9.890;2023-02-11T08:42:43;6.60;99.90
20722;DHT22;10522;52.198;9.890;2023-02-11T08:45:08;6.60;99.90
20722;DHT22;10522;52.198;9.890;2023-02-11T08:47:35;6.60;99.90
20722;DHT22;10522;52.198;9.890;2023-02-11T08:50:01;6.60;99.90
20722;DHT22;10522;52.198;9.890;2023-02-11T08:52:26;6.60;99.90
20722;DHT22;10522;52.198;9.890;2023-02-11T08:54:52;6.60;99.90
20722;DHT22;10522;52.198;9.890;2023-02-11T08:57:17;6.60;99.90
20722;DHT22;10522;52.198;9.890;2023-02-11T08:59:43;6.60;99.90
20722;DHT22;10522;52.198;9.890;2023-02-11T09:02:13;6.60;99.90
20722;DHT22;10522;52.198;9.890;2023-02-11T09:04:38;6.70;99.90
20722;DHT22;10522;52.198;9.890;2023-02-11T09:07:04;6.60;99.90
20722;DHT22;10522;52.198;9.890;2023-02-11T09:09:30;6.70;99.90
20722;DHT22;10522;52.198;9.890;2023-02-11T09:11:55;6.70;99.90
20722;DHT22;10522;52.198;9.890;2023-02-11T09:14:22;6.60;99.90
20722;DHT22;10522;52.198;9.890;2023-02-11T09:16:49;6.70;99.90
20722;DHT22;10522;52.198;9.890;2023-02-11T09:19:15;6.70;99.90
20722;DHT22;10522;52.198;9.890;2023-02-11T09:21:41;6.80;99.90
20722;DHT22;10522;52.198;9.890;2023-02-11T09:24:06;6.80;99.90
20722;DHT22;10522;52.198;9.890;2023-02-11T09:26:33;6.80;99.90
20722;DHT22;10522;52.198;9.890;2023-02-11T09:29:00;6.80;99.90
20722;DHT22;10522;52.198;9.890;2023-02-11T09:31:28;6.90;99.90
20722;DHT22;10522;52.198;9.890;2023-02-11T09:33:56;6.90;99.90
20722;DHT22;10522;52.198;9.890;2023-02-11T09:36:27;7.00;99.90
20722;DHT22;10522;52.198;9.890;2023-02-11T09:38:54;7.10;99.90
20722;DHT22;10522;52.198;9.890;2023-02-11T09:41:41;7.20;99.90
20722;DHT22;10522;52.198;9.890;2023-02-11T09:44:20;7.10;99.90
20722;DHT22;10522;52.198;9.890;2023-02-11T09:46:52;7.10;99.90
20722;DHT22;10522;52.198;9.890;2023-02-11T09:49:23;7.10;99.90
20722;DHT22;10522;52.198;9.890;2023-02-11T09:52:29;7.30;99.90
20722;DHT22;10522;52.198;9.890;2023-02-11T09:54:59;7.20;99.90
20722;DHT22;10522;52.198;9.890;2023-02-11T09:57:36;7.30;99.90
20722;DHT22;10522;52.198;9.890;2023-02-11T10:00:16;7.30;99.90
20722;DHT22;10522;52.198;9.890;2023-02-11T10:03:05;7.30;99.90
20722;DHT22;10522;52.198;9.890;2023-02-11T10:05:55;7.40;99.90
20722;DHT22;10522;52.198;9.890;2023-02-11T10:16:44;7.40;99.90
20722;DHT22;10522;52.198;9.890;2023-02-11T10:22:34;7.40;99.90
20722;DHT22;10522;52.198;9.890;2023-02-11T10:25:14;7.30;99.90
20722;DHT22;10522;52.198;9.890;2023-02-11T10:27:41;7.30;99.90
20722;DHT22;10522;52.198;9.890;2023-02-11T10:35:23;7.30;99.90
20722;DHT22;10522;52.198;9.890;2023-02-11T10:37:49;7.30;99.90
20722;DHT22;10522;52.198;9.890;2023-02-11T10:40:19;7.30;99.90
20722;DHT22;10522;52.198;9.890;2023-02-11T10:42:48;7.30;99.90
20722;DHT22;10522;52.198;9.890;2023-02-11T10:45:42;7.30;99.90
20722;DHT22;10522;52.198;9.890;2023-02-11T10:48:49;7.40;99.90
20722;DHT22;10522;52.198;9.890;2023-02-11T10:51:23;7.40;99.90
20722;DHT22;10522;52.198;9.890;2023-02-11T10:56:32;7.40;99.90
20722;DHT22;10522;52.198;9.890;2023-02-11T10:59:03;7.40;99.90
20722;DHT22;10522;52.198;9.890;2023-02-11T11:01:39;7.50;99.90
20722;DHT22;10522;52.198;9.890;2023-02-11T11:04:06;7.60;99.90
20722;DHT22;10522;52.198;9.890;2023-02-11T11:06:47;7.50;99.90
20722;DHT22;10522;52.198;9.890;2023-02-11T11:09:47;7.50;99.90
20722;DHT22;10522;52.198;9.890;2023-02-11T11:14:57;7.50;99.90
20722;DHT22;10522;52.198;9.890;2023-02-11T11:17:24;7.50;99.90
20722;DHT22;10522;52.198;9.890;2023-02-11T11:20:02;7.60;99.90
20722;DHT22;10522;52.198;9.890;2023-02-11T11:22:37;7.50;99.90
20722;DHT22;10522;52.198;9.890;2023-02-11T11:25:03;7.50;99.90
20722;DHT22;10522;52.198;9.890;2023-02-11T11:27:29;7.40;99.90
20722;DHT22;10522;52.198;9.890;2023-02-11T11:29:55;7.40;99.90
20722;DHT22;10522;52.198;9.890;2023-02-11T11:32:22;7.40;99.90
20722;DHT22;10522;52.198;9.890;2023-02-11T11:34:51;7.50;99.90
20722;DHT22;10522;52.198;9.890;2023-02-11T11:37:36;7.40;99.90
20722;DHT22;10522;52.198;9.890;2023-02-11T11:42:38;7.30;99.90
20722;DHT22;10522;52.198;9.890;2023-02-11T11:47:53;7.40;99.90
20722;DHT22;10522;52.198;9.890;2023-02-11T11:53:22;7.40;99.90
20722;DHT22;10522;52.198;9.890;2023-02-11T11:56:08;7.40;99.90
20722;DHT22;10522;52.198;9.890;2023-02-11T11:58:36;7.40;99.90
20722;DHT22;10522;52.198;9.890;2023-02-11T12:06:45;7.40;99.90
20722;DHT22;10522;52.198;9.890;2023-02-11T12:09:34;7.40;99.90
20722;DHT22;10522;52.198;9.890;2023-02-11T12:14:57;7.50;99.90
20722;DHT22;10522;52.198;9.890;2023-02-11T12:25:33;7.50;99.90
20722;DHT22;10522;52.198;9.890;2023-02-11T12:30:53;7.50;99.90
20722;DHT22;10522;52.198;9.890;2023-02-11T12:36:11;7.50;99.90
20722;DHT22;10522;52.198;9.890;2023-02-11T12:44:54;7.50;99.90
20722;DHT22;10522;52.198;9.890;2023-02-11T12:47:56;7.50;99.90
20722;DHT22;10522;52.198;9.890;2023-02-11T12:53:31;7.50;99.90
20722;DHT22;10522;52.198;9.890;2023-02-11T12:56:15;7.60;99.90
20722;DHT22;10522;52.198;9.890;2023-02-11T12:58:43;7.60;99.90
20722;DHT22;10522;52.198;9.890;2023-02-11T13:01:18;7.60;99.90
20722;DHT22;10522;52.198;9.890;2023-02-11T13:06:19;7.50;99.90
20722;DHT22;10522;52.198;9.890;2023-02-11T13:09:00;7.50;99.90
20722;DHT22;10522;52.198;9.890;2023-02-11T13:11:32;7.50;99.90
20722;DHT22;10522;52.198;9.890;2023-02-11T13:14:05;7.50;99.90
20722;DHT22;10522;52.198;9.890;2023-02-11T13:16:45;7.50;99.90
20722;DHT22;10522;52.198;9.890;2023-02-11T13:19:23;7.50;99.90
20722;DHT22;10522;52.198;9.890;2023-02-11T13:22:21;7.40;99.90
20722;DHT22;10522;52.198;9.890;2023-02-11T13:27:37;7.50;99.90
20722;DHT22;10522;52.198;9.890;2023-02-11T13:35:38;7.60;99.90
20722;DHT22;10522;52.198;9.890;2023-02-11T13:38:17;7.60;99.90
20722;DHT22;10522;52.198;9.890;2023-02-11T13:40:44;7.50;99.90
20722;DHT22;10522;52.198;9.890;2023-02-11T13:43:21;7.60;99.90
20722;DHT22;10522;52.198;9.890;2023-02-11T13:45:49;7.40;99.90
20722;DHT22;10522;52.198;9.890;2023-02-11T13:48:32;7.50;99.90
20722;DHT22;10522;52.198;9.890;2023-02-11T13:51:02;7.50;99.90
20722;DHT22;10522;52.198;9.890;2023-02-11T13:53:29;7.50;99.90
20722;DHT22;10522;52.198;9.890;2023-02-11T13:56:29;7.50;99.90
20722;DHT22;10522;52.198;9.890;2023-02-11T13:58:56;7.50;99.90
20722;DHT22;10522;52.198;9.890;2023-02-11T14:04:36;7.50;99.90
20722;DHT22;10522;52.198;9.890;2023-02-11T14:07:29;7.50;99.90
20722;DHT22;10522;52.198;9.890;2023-02-11T14:16:05;7.70;99.90
20722;DHT22;10522;52.198;9.890;2023-02-11T14:21:21;7.70;99.90
20722;DHT22;10522;52.198;9.890;2023-02-11T14:23:49;7.60;99.90
20722;DHT22;10522;52.198;9.890;2023-02-11T14:28:58;7.70;99.90
20722;DHT22;10522;52.198;9.890;2023-02-11T14:31:33;7.70;99.90
20722;DHT22;10522;52.198;9.890;2023-02-11T14:42:19;7.70;99.90
20722;DHT22;10522;52.198;9.890;2023-02-11T14:44:49;7.70;99.90
20722;DHT22;10522;52.198;9.890;2023-02-11T14:47:18;7.70;99.90
20722;DHT22;10522;52.198;9.890;2023-02-11T14:49:45;7.80;99.90
20722;DHT22;10522;52.198;9.890;2023-02-11T14:52:29;7.70;99.90
20722;DHT22;10522;52.198;9.890;2023-02-11T14:57:33;7.70;99.90
20722;DHT22;10522;52.198;9.890;2023-02-11T15:00:03;7.80;99.90
20722;DHT22;10522;52.198;9.890;2023-02-11T15:02:35;7.80;99.90
20722;DHT22;10522;52.198;9.890;2023-02-11T15:05:23;7.70;99.90
20722;DHT22;10522;52.198;9.890;2023-02-11T15:07:54;7.70;99.90
20722;DHT22;10522;52.198;9.890;2023-02-11T15:10:31;7.80;99.90
20722;DHT22;10522;52.198;9.890;2023-02-11T15:12:58;7.60;99.90
20722;DHT22;10522;52.198;9.890;2023-02-11T15:15:26;7.70;99.90
20722;DHT22;10522;52.198;9.890;2023-02-11T15:17:53;7.70;99.90
20722;DHT22;10522;52.198;9.890;2023-02-11T15:20:23;7.80;99.90
20722;DHT22;10522;52.198;9.890;2023-02-11T15:22:57;7.80;99.90
20722;DHT22;10522;52.198;9.890;2023-02-11T15:25:23;7.80;99.90
20722;DHT22;10522;52.198;9.890;2023-02-11T15:27:51;7.80;99.90
20722;DHT22;10522;52.198;9.890;2023-02-11T15:30:30;7.80;99.90
20722;DHT22;10522;52.198;9.890;2023-02-11T15:32:59;7.80;99.90
20722;DHT22;10522;52.198;9.890;2023-02-11T15:35:38;7.80;99.90
20722;DHT22;10522;52.198;9.890;2023-02-11T15:38:05;7.80;99.90
20722;DHT22;10522;52.198;9.890;2023-02-11T15:40:33;7.80;99.90
20722;DHT22;10522;52.198;9.890;2023-02-11T15:50:37;7.80;99.90
20722;DHT22;10522;52.198;9.890;2023-02-11T15:53:21;7.70;99.90
20722;DHT22;10522;52.198;9.890;2023-02-11T15:55:49;7.80;99.90
20722;DHT22;10522;52.198;9.890;2023-02-11T15:58:16;7.80;99.90
20722;DHT22;10522;52.198;9.890;2023-02-11T16:00:50;7.70;99.90
20722;DHT22;10522;52.198;9.890;2023-02-11T16:03:20;7.80;99.90
20722;DHT22;10522;52.198;9.890;2023-02-11T16:05:46;7.80;99.90
20722;DHT22;10522;52.198;9.890;2023-02-11T16:08:24;7.80;99.90
20722;DHT22;10522;52.198;9.890;2023-02-11T16:10:59;7.80;99.90
20722;DHT22;10522;52.198;9.890;2023-02-11T16:13:29;7.80;99.90
20722;DHT22;10522;52.198;9.890;2023-02-11T16:16:03;7.80;99.90
20722;DHT22;10522;52.198;9.890;2023-02-11T16:18:44;7.80;99.90
20722;DHT22;10522;52.198;9.890;2023-02-11T16:21:15;7.70;99.90
20722;DHT22;10522;52.198;9.890;2023-02-11T16:23:42;7.80;99.90
20722;DHT22;10522;52.198;9.890;2023-02-11T16:28:50;7.70;99.90
20722;DHT22;10522;52.198;9.890;2023-02-11T16:31:17;7.60;99.90
20722;DHT22;10522;52.198;9.890;2023-02-11T16:33:43;7.70;99.90
20722;DHT22;10522;52.198;9.890;2023-02-11T16:36:13;7.80;99.90
20722;DHT22;10522;52.198;9.890;2023-02-11T16:38:41;7.70;99.90
20722;DHT22;10522;52.198;9.890;2023-02-11T16:41:07;7.70;99.90
20722;DHT22;10522;52.198;9.890;2023-02-11T16:43:36;7.70;99.90
20722;DHT22;10522;52.198;9.890;2023-02-11T16:46:01;7.70;99.90
20722;DHT22;10522;52.198;9.890;2023-02-11T16:48:28;7.70;99.90
20722;DHT22;10522;52.198;9.890;2023-02-11T16:50:53;7.70;99.90
20722;DHT22;10522;52.198;9.890;2023-02-11T16:53:23;7.80;99.90
20722;DHT22;10522;52.198;9.890;2023-02-11T16:55:50;7.80;99.90
20722;DHT22;10522;52.198;9.890;2023-02-11T16:58:16;7.80;99.90
20722;DHT22;10522;52.198;9.890;2023-02-11T17:00:43;7.80;99.90
20722;DHT22;10522;52.198;9.890;2023-02-11T17:03:20;7.80;99.90
20722;DHT22;10522;52.198;9.890;2023-02-11T17:05:47;7.80;99.90
20722;DHT22;10522;52.198;9.890;2023-02-11T17:08:13;7.80;99.90
20722;DHT22;10522;52.198;9.890;2023-02-11T17:10:39;8.00;99.90
20722;DHT22;10522;52.198;9.890;2023-02-11T17:13:05;7.90;99.90
20722;DHT22;10522;52.198;9.890;2023-02-11T17:15:31;7.80;99.90
20722;DHT22;10522;52.198;9.890;2023-02-11T17:17:57;7.90;99.90
20722;DHT22;10522;52.198;9.890;2023-02-11T17:20:23;7.90;99.90
20722;DHT22;10522;52.198;9.890;2023-02-11T17:22:50;7.90;99.90
20722;DHT22;10522;52.198;9.890;2023-02-11T17:25:16;7.90;99.90
20722;DHT22;10522;52.198;9.890;2023-02-11T17:27:42;8.00;99.90
20722;DHT22;10522;52.198;9.890;2023-02-11T17:30:08;8.00;99.90
20722;DHT22;10522;52.198;9.890;2023-02-11T17:32:35;7.90;99.90
20722;DHT22;10522;52.198;9.890;2023-02-11T17:35:01;8.00;99.90
20722;DHT22;10522;52.198;9.890;2023-02-11T17:37:27;8.00;99.90
20722;DHT22;10522;52.198;9.890;2023-02-11T17:39:53;8.00;99.90
20722;DHT22;10522;52.198;9.890;2023-02-11T17:42:19;7.90;99.90
20722;DHT22;10522;52.198;9.890;2023-02-11T17:44:44;7.90;99.90
20722;DHT22;10522;52.198;9.890;2023-02-11T17:47:11;7.90;99.90
20722;DHT22;10522;52.198;9.890;2023-02-11T17:49:38;7.90;99.90
20722;DHT22;10522;52.198;9.890;2023-02-11T17:52:03;7.90;99.90
20722;DHT22;10522;52.198;9.890;2023-02-11T17:54:29;7.90;99.90
20722;DHT22;10522;52.198;9.890;2023-02-11T17:56:55;7.90;99.90
20722;DHT22;10522;52.198;9.890;2023-02-11T17:59:20;7.90;99.90
20722;DHT22;10522;52.198;9.890;2023-02-11T18:01:46;7.90;99.90
20722;DHT22;10522;52.198;9.890;2023-02-11T18:04:16;7.90;99.90
20722;DHT22;10522;52.198;9.890;2023-02-11T18:06:42;7.80;99.90
20722;DHT22;10522;52.198;9.890;2023-02-11T18:09:09;7.90;99.90
20722;DHT22;10522;52.198;9.890;2023-02-11T18:11:36;7.90;99.90
20722;DHT22;10522;52.198;9.890;2023-02-11T18:14:03;7.90;99.90
20722;DHT22;10522;52.198;9.890;2023-02-11T18:16:29;7.90;99.90
20722;DHT22;10522;52.198;9.890;2023-02-11T18:18:56;7.90;99.90
20722;DHT22;10522;52.198;9.890;2023-02-11T18:21:23;8.00;99.90
20722;DHT22;10522;52.198;9.890;2023-02-11T18:23:49;7.90;99.90
20722;DHT22;10522;52.198;9.890;2023-02-11T18:26:16;8.10;99.90
20722;DHT22;10522;52.198;9.890;2023-02-11T18:28:42;8.10;99.90